sensor_id;sensor_type;location;lat;lon;timestamp;P1;durP1;ratioP1;P2;durP2;ratioP2
29210;SDS011;16250;49.932;10.980;2022-08-25T00:01:20;16.67;;;14.95;;
29210;SDS011;16250;49.932;10.980;2022-08-25T00:03:48;18.20;;;14.40;;
29210;SDS011;16250;49.932;10.980;2022-08-25T00:06:13;18.17;;;15.85;;
29210;SDS011;16250;49.932;10.980;2022-08-25T00:08:41;18.67;;;14.93;;
29210;SDS011;16250;49.932;10.980;2022-08-25T00:11:08;20.15;;;15.00;;
29210;SDS011;16250;49.932;10.980;2022-08-25T00:13:42;18.35;;;14.57;;
29210;SDS011;16250;49.932;10.980;2022-08-25T00:16:09;21.13;;;15.05;;
29210;SDS011;16250;49.932;10.980;2022-08-25T00:18:37;19.45;;;15.43;;
29210;SDS011;16250;49.932;10.980;2022-08-25T00:21:03;21.38;;;15.85;;
29210;SDS011;16250;49.932;10.980;2022-08-25T00:23:30;19.13;;;14.75;;
29210;SDS011;16250;49.932;10.980;2022-08-25T00:25:56;16.73;;;14.77;;
29210;SDS011;16250;49.932;10.980;2022-08-25T00:28:22;19.80;;;14.85;;
29210;SDS011;16250;49.932;10.980;2022-08-25T00:30:48;18.80;;;15.40;;
29210;SDS011;16250;49.932;10.980;2022-08-25T00:33:14;19.35;;;14.95;;
29210;SDS011;16250;49.932;10.980;2022-08-25T00:35:40;18.08;;;14.77;;
29210;SDS011;16250;49.932;10.980;2022-08-25T00:38:07;20.25;;;15.93;;
29210;SDS011;16250;49.932;10.980;2022-08-25T00:40:35;21.05;;;15.95;;
29210;SDS011;16250;49.932;10.980;2022-08-25T00:43:01;19.08;;;16.08;;
29210;SDS011;16250;49.932;10.980;2022-08-25T00:45:27;17.80;;;15.85;;
29210;SDS011;16250;49.932;10.980;2022-08-25T00:47:53;16.85;;;15.05;;
29210;SDS011;16250;49.932;10.980;2022-08-25T00:50:19;18.88;;;15.02;;
29210;SDS011;16250;49.932;10.980;2022-08-25T00:52:47;18.45;;;16.13;;
29210;SDS011;16250;49.932;10.980;2022-08-25T00:58:02;18.73;;;16.08;;
29210;SDS011;16250;49.932;10.980;2022-08-25T01:00:33;19.52;;;15.63;;
29210;SDS011;16250;49.932;10.980;2022-08-25T01:03:02;19.42;;;17.10;;
29210;SDS011;16250;49.932;10.980;2022-08-25T01:05:29;18.23;;;15.18;;
29210;SDS011;16250;49.932;10.980;2022-08-25T01:07:55;22.10;;;16.83;;
29210;SDS011;16250;49.932;10.980;2022-08-25T01:10:23;23.58;;;17.40;;
29210;SDS011;16250;49.932;10.980;2022-08-25T01:12:51;20.65;;;17.17;;
29210;SDS011;16250;49.932;10.980;2022-08-25T01:15:19;25.27;;;18.38;;
29210;SDS011;16250;49.932;10.980;2022-08-25T01:17:50;21.80;;;18.20;;
29210;SDS011;16250;49.932;10.980;2022-08-25T01:20:19;20.23;;;17.30;;
29210;SDS011;16250;49.932;10.980;2022-08-25T01:22:49;21.65;;;17.90;;
29210;SDS011;16250;49.932;10.980;2022-08-25T01:25:59;23.05;;;17.17;;
29210;SDS011;16250;49.932;10.980;2022-08-25T01:28:07;21.63;;;16.95;;
29210;SDS011;16250;49.932;10.980;2022-08-25T01:30:33;235.32;;;57.70;;
29210;SDS011;16250;49.932;10.980;2022-08-25T01:33:02;21.80;;;16.77;;
29210;SDS011;16250;49.932;10.980;2022-08-25T01:35:28;23.33;;;16.63;;
29210;SDS011;16250;49.932;10.980;2022-08-25T01:37:54;24.05;;;18.77;;
29210;SDS011;16250;49.932;10.980;2022-08-25T01:40:20;27.00;;;19.73;;
29210;SDS011;16250;49.932;10.980;2022-08-25T01:43:07;22.45;;;18.67;;
29210;SDS011;16250;49.932;10.980;2022-08-25T01:45:39;23.60;;;18.38;;
29210;SDS011;16250;49.932;10.980;2022-08-25T01:48:07;25.13;;;18.98;;
29210;SDS011;16250;49.932;10.980;2022-08-25T01:50:34;23.05;;;18.75;;
29210;SDS011;16250;49.932;10.980;2022-08-25T01:55:32;22.33;;;18.73;;
29210;SDS011;16250;49.932;10.980;2022-08-25T01:58:16;22.52;;;18.48;;
29210;SDS011;16250;49.932;10.980;2022-08-25T02:00:46;26.52;;;18.98;;
29210;SDS011;16250;49.932;10.980;2022-08-25T02:03:13;24.15;;;18.55;;
29210;SDS011;16250;49.932;10.980;2022-08-25T02:05:39;26.30;;;19.27;;
29210;SDS011;16250;49.932;10.980;2022-08-25T02:08:04;21.30;;;18.38;;
29210;SDS011;16250;49.932;10.980;2022-08-25T02:10:31;25.25;;;19.13;;
29210;SDS011;16250;49.932;10.980;2022-08-25T02:12:57;25.52;;;19.73;;
29210;SDS011;16250;49.932;10.980;2022-08-25T02:15:23;23.58;;;19.17;;
29210;SDS011;16250;49.932;10.980;2022-08-25T02:17:49;20.83;;;18.13;;
29210;SDS011;16250;49.932;10.980;2022-08-25T02:20:15;24.35;;;18.48;;
29210;SDS011;16250;49.932;10.980;2022-08-25T02:22:40;22.58;;;19.95;;
29210;SDS011;16250;49.932;10.980;2022-08-25T02:25:06;21.83;;;18.17;;
29210;SDS011;16250;49.932;10.980;2022-08-25T02:27:32;23.55;;;19.73;;
29210;SDS011;16250;49.932;10.980;2022-08-25T02:29:58;23.10;;;18.23;;
29210;SDS011;16250;49.932;10.980;2022-08-25T02:32:23;23.80;;;18.30;;
29210;SDS011;16250;49.932;10.980;2022-08-25T02:34:49;23.33;;;19.25;;
29210;SDS011;16250;49.932;10.980;2022-08-25T02:37:14;23.33;;;18.45;;
29210;SDS011;16250;49.932;10.980;2022-08-25T02:39:40;24.13;;;19.00;;
29210;SDS011;16250;49.932;10.980;2022-08-25T02:42:06;22.13;;;18.40;;
29210;SDS011;16250;49.932;10.980;2022-08-25T02:44:31;24.60;;;19.33;;
29210;SDS011;16250;49.932;10.980;2022-08-25T02:46:57;21.58;;;18.65;;
29210;SDS011;16250;49.932;10.980;2022-08-25T02:49:23;21.20;;;17.88;;
29210;SDS011;16250;49.932;10.980;2022-08-25T02:51:49;22.08;;;18.52;;
29210;SDS011;16250;49.932;10.980;2022-08-25T02:54:14;25.40;;;19.00;;
29210;SDS011;16250;49.932;10.980;2022-08-25T02:56:40;23.48;;;18.70;;
29210;SDS011;16250;49.932;10.980;2022-08-25T02:59:06;24.20;;;18.63;;
29210;SDS011;16250;49.932;10.980;2022-08-25T03:01:32;25.27;;;20.02;;
29210;SDS011;16250;49.932;10.980;2022-08-25T03:03:58;23.85;;;18.30;;
29210;SDS011;16250;49.932;10.980;2022-08-25T03:06:25;27.33;;;19.60;;
29210;SDS011;16250;49.932;10.980;2022-08-25T03:08:52;22.90;;;19.23;;
29210;SDS011;16250;49.932;10.980;2022-08-25T03:11:18;22.35;;;18.77;;
29210;SDS011;16250;49.932;10.980;2022-08-25T03:13:44;22.00;;;18.88;;
29210;SDS011;16250;49.932;10.980;2022-08-25T03:16:10;25.20;;;19.90;;
29210;SDS011;16250;49.932;10.980;2022-08-25T03:18:36;22.45;;;17.95;;
29210;SDS011;16250;49.932;10.980;2022-08-25T03:21:03;25.23;;;19.52;;
29210;SDS011;16250;49.932;10.980;2022-08-25T03:23:29;27.48;;;20.92;;
29210;SDS011;16250;49.932;10.980;2022-08-25T03:25:55;28.58;;;20.38;;
29210;SDS011;16250;49.932;10.980;2022-08-25T03:28:39;26.13;;;20.77;;
29210;SDS011;16250;49.932;10.980;2022-08-25T03:31:05;23.27;;;20.00;;
29210;SDS011;16250;49.932;10.980;2022-08-25T03:33:32;26.92;;;20.35;;
29210;SDS011;16250;49.932;10.980;2022-08-25T03:35:58;23.73;;;19.67;;
29210;SDS011;16250;49.932;10.980;2022-08-25T03:38:24;24.48;;;20.10;;
29210;SDS011;16250;49.932;10.980;2022-08-25T03:40:51;24.33;;;19.75;;
29210;SDS011;16250;49.932;10.980;2022-08-25T03:43:17;24.48;;;20.75;;
29210;SDS011;16250;49.932;10.980;2022-08-25T03:45:43;24.65;;;20.63;;
29210;SDS011;16250;49.932;10.980;2022-08-25T03:48:10;29.38;;;22.05;;
29210;SDS011;16250;49.932;10.980;2022-08-25T03:50:36;27.38;;;21.50;;
29210;SDS011;16250;49.932;10.980;2022-08-25T03:53:07;27.85;;;21.48;;
29210;SDS011;16250;49.932;10.980;2022-08-25T03:55:32;24.35;;;20.55;;
29210;SDS011;16250;49.932;10.980;2022-08-25T03:57:58;26.63;;;20.58;;
29210;SDS011;16250;49.932;10.980;2022-08-25T04:00:23;28.42;;;20.58;;
29210;SDS011;16250;49.932;10.980;2022-08-25T04:02:49;28.15;;;21.30;;
29210;SDS011;16250;49.932;10.980;2022-08-25T04:05:15;24.83;;;21.35;;
29210;SDS011;16250;49.932;10.980;2022-08-25T04:07:40;25.60;;;21.05;;
29210;SDS011;16250;49.932;10.980;2022-08-25T04:10:07;26.35;;;21.25;;
29210;SDS011;16250;49.932;10.980;2022-08-25T04:12:34;26.67;;;20.98;;
29210;SDS011;16250;49.932;10.980;2022-08-25T04:15:00;25.75;;;21.20;;
29210;SDS011;16250;49.932;10.980;2022-08-25T04:17:27;31.25;;;22.60;;
29210;SDS011;16250;49.932;10.980;2022-08-25T04:19:54;25.38;;;21.70;;
29210;SDS011;16250;49.932;10.980;2022-08-25T04:22:19;27.08;;;21.70;;
29210;SDS011;16250;49.932;10.980;2022-08-25T04:24:45;27.98;;;22.27;;
29210;SDS011;16250;49.932;10.980;2022-08-25T04:27:10;30.00;;;22.40;;
29210;SDS011;16250;49.932;10.980;2022-08-25T04:29:36;27.80;;;22.42;;
29210;SDS011;16250;49.932;10.980;2022-08-25T04:32:02;28.40;;;22.27;;
29210;SDS011;16250;49.932;10.980;2022-08-25T04:34:28;27.98;;;21.77;;
29210;SDS011;16250;49.932;10.980;2022-08-25T04:36:53;27.55;;;22.40;;
29210;SDS011;16250;49.932;10.980;2022-08-25T04:39:19;28.38;;;22.08;;
29210;SDS011;16250;49.932;10.980;2022-08-25T04:41:49;27.52;;;22.33;;
29210;SDS011;16250;49.932;10.980;2022-08-25T04:44:15;28.60;;;21.85;;
29210;SDS011;16250;49.932;10.980;2022-08-25T04:46:41;28.35;;;22.08;;
29210;SDS011;16250;49.932;10.980;2022-08-25T04:49:07;31.05;;;23.30;;
29210;SDS011;16250;49.932;10.980;2022-08-25T04:51:35;30.48;;;23.20;;
29210;SDS011;16250;49.932;10.980;2022-08-25T04:54:04;29.63;;;23.38;;
29210;SDS011;16250;49.932;10.980;2022-08-25T04:56:32;25.75;;;21.33;;
29210;SDS011;16250;49.932;10.980;2022-08-25T04:59:02;32.53;;;23.23;;
29210;SDS011;16250;49.932;10.980;2022-08-25T05:01:29;27.15;;;21.48;;
29210;SDS011;16250;49.932;10.980;2022-08-25T05:03:59;29.13;;;22.42;;
29210;SDS011;16250;49.932;10.980;2022-08-25T05:06:27;27.92;;;22.10;;
29210;SDS011;16250;49.932;10.980;2022-08-25T05:08:54;26.00;;;20.85;;
29210;SDS011;16250;49.932;10.980;2022-08-25T05:11:21;27.25;;;21.85;;
29210;SDS011;16250;49.932;10.980;2022-08-25T05:13:48;28.42;;;21.85;;
29210;SDS011;16250;49.932;10.980;2022-08-25T05:16:15;29.52;;;22.23;;
29210;SDS011;16250;49.932;10.980;2022-08-25T05:18:41;29.60;;;21.85;;
29210;SDS011;16250;49.932;10.980;2022-08-25T05:21:10;29.88;;;21.30;;
29210;SDS011;16250;49.932;10.980;2022-08-25T05:23:40;30.50;;;21.60;;
29210;SDS011;16250;49.932;10.980;2022-08-25T05:26:08;27.63;;;21.60;;
29210;SDS011;16250;49.932;10.980;2022-08-25T05:28:36;27.73;;;21.60;;
29210;SDS011;16250;49.932;10.980;2022-08-25T05:31:04;28.83;;;21.30;;
29210;SDS011;16250;49.932;10.980;2022-08-25T05:33:30;33.75;;;21.55;;
29210;SDS011;16250;49.932;10.980;2022-08-25T05:35:56;26.63;;;19.80;;
29210;SDS011;16250;49.932;10.980;2022-08-25T05:38:22;26.02;;;20.92;;
29210;SDS011;16250;49.932;10.980;2022-08-25T05:40:51;25.38;;;20.02;;
29210;SDS011;16250;49.932;10.980;2022-08-25T05:43:26;28.75;;;20.35;;
29210;SDS011;16250;49.932;10.980;2022-08-25T05:45:56;29.95;;;20.42;;
29210;SDS011;16250;49.932;10.980;2022-08-25T05:48:23;26.10;;;20.67;;
29210;SDS011;16250;49.932;10.980;2022-08-25T05:50:50;25.88;;;20.27;;
29210;SDS011;16250;49.932;10.980;2022-08-25T05:53:17;27.55;;;21.23;;
29210;SDS011;16250;49.932;10.980;2022-08-25T05:55:44;26.75;;;20.60;;
29210;SDS011;16250;49.932;10.980;2022-08-25T05:58:09;24.85;;;20.23;;
29210;SDS011;16250;49.932;10.980;2022-08-25T06:00:36;26.15;;;20.05;;
29210;SDS011;16250;49.932;10.980;2022-08-25T06:03:02;25.25;;;19.30;;
29210;SDS011;16250;49.932;10.980;2022-08-25T06:05:28;23.95;;;20.15;;
29210;SDS011;16250;49.932;10.980;2022-08-25T06:07:54;27.05;;;20.05;;
29210;SDS011;16250;49.932;10.980;2022-08-25T06:10:20;23.52;;;19.13;;
29210;SDS011;16250;49.932;10.980;2022-08-25T06:12:46;26.02;;;20.25;;
29210;SDS011;16250;49.932;10.980;2022-08-25T06:15:13;24.40;;;19.88;;
29210;SDS011;16250;49.932;10.980;2022-08-25T06:17:40;24.98;;;18.40;;
29210;SDS011;16250;49.932;10.980;2022-08-25T06:20:10;25.10;;;18.55;;
29210;SDS011;16250;49.932;10.980;2022-08-25T06:22:38;23.40;;;19.00;;
29210;SDS011;16250;49.932;10.980;2022-08-25T06:25:05;23.55;;;18.02;;
29210;SDS011;16250;49.932;10.980;2022-08-25T06:27:32;23.50;;;17.60;;
29210;SDS011;16250;49.932;10.980;2022-08-25T06:29:58;21.35;;;16.90;;
29210;SDS011;16250;49.932;10.980;2022-08-25T06:32:29;24.92;;;16.85;;
29210;SDS011;16250;49.932;10.980;2022-08-25T06:34:56;23.65;;;18.13;;
29210;SDS011;16250;49.932;10.980;2022-08-25T06:37:23;24.35;;;18.33;;
29210;SDS011;16250;49.932;10.980;2022-08-25T06:39:49;24.95;;;17.38;;
29210;SDS011;16250;49.932;10.980;2022-08-25T06:42:15;23.55;;;17.15;;
29210;SDS011;16250;49.932;10.980;2022-08-25T06:44:40;22.50;;;17.00;;
29210;SDS011;16250;49.932;10.980;2022-08-25T06:47:06;22.88;;;16.80;;
29210;SDS011;16250;49.932;10.980;2022-08-25T06:49:33;22.20;;;17.33;;
29210;SDS011;16250;49.932;10.980;2022-08-25T06:51:59;24.40;;;18.00;;
29210;SDS011;16250;49.932;10.980;2022-08-25T06:54:25;21.58;;;15.50;;
29210;SDS011;16250;49.932;10.980;2022-08-25T06:56:51;23.27;;;16.05;;
29210;SDS011;16250;49.932;10.980;2022-08-25T06:59:16;20.67;;;15.45;;
29210;SDS011;16250;49.932;10.980;2022-08-25T07:01:42;21.65;;;16.13;;
29210;SDS011;16250;49.932;10.980;2022-08-25T07:04:09;19.05;;;15.60;;
29210;SDS011;16250;49.932;10.980;2022-08-25T07:06:35;21.58;;;16.70;;
29210;SDS011;16250;49.932;10.980;2022-08-25T07:09:05;27.58;;;16.02;;
29210;SDS011;16250;49.932;10.980;2022-08-25T07:11:32;20.75;;;15.82;;
29210;SDS011;16250;49.932;10.980;2022-08-25T07:13:58;20.85;;;16.13;;
29210;SDS011;16250;49.932;10.980;2022-08-25T07:16:35;19.67;;;15.93;;
29210;SDS011;16250;49.932;10.980;2022-08-25T07:19:01;19.15;;;15.15;;
29210;SDS011;16250;49.932;10.980;2022-08-25T07:21:28;20.30;;;15.75;;
29210;SDS011;16250;49.932;10.980;2022-08-25T07:23:55;18.23;;;14.57;;
29210;SDS011;16250;49.932;10.980;2022-08-25T07:26:24;20.30;;;15.05;;
29210;SDS011;16250;49.932;10.980;2022-08-25T07:28:53;19.67;;;14.93;;
29210;SDS011;16250;49.932;10.980;2022-08-25T07:31:19;18.55;;;14.68;;
29210;SDS011;16250;49.932;10.980;2022-08-25T07:33:45;18.85;;;14.25;;
29210;SDS011;16250;49.932;10.980;2022-08-25T07:36:30;17.10;;;13.50;;
29210;SDS011;16250;49.932;10.980;2022-08-25T07:38:56;15.20;;;13.07;;
29210;SDS011;16250;49.932;10.980;2022-08-25T07:41:22;19.95;;;13.63;;
29210;SDS011;16250;49.932;10.980;2022-08-25T07:43:49;15.57;;;12.95;;
29210;SDS011;16250;49.932;10.980;2022-08-25T07:46:14;16.92;;;14.07;;
29210;SDS011;16250;49.932;10.980;2022-08-25T07:48:40;16.50;;;12.48;;
29210;SDS011;16250;49.932;10.980;2022-08-25T07:51:09;17.45;;;12.57;;
29210;SDS011;16250;49.932;10.980;2022-08-25T07:53:38;14.20;;;12.75;;
29210;SDS011;16250;49.932;10.980;2022-08-25T07:56:08;17.10;;;12.68;;
29210;SDS011;16250;49.932;10.980;2022-08-25T07:58:37;13.32;;;11.93;;
29210;SDS011;16250;49.932;10.980;2022-08-25T08:01:04;18.83;;;12.93;;
29210;SDS011;16250;49.932;10.980;2022-08-25T08:03:30;16.45;;;11.90;;
29210;SDS011;16250;49.932;10.980;2022-08-25T08:05:58;14.00;;;12.60;;
29210;SDS011;16250;49.932;10.980;2022-08-25T08:08:24;19.13;;;12.82;;
29210;SDS011;16250;49.932;10.980;2022-08-25T08:10:50;14.80;;;11.43;;
29210;SDS011;16250;49.932;10.980;2022-08-25T08:13:16;13.73;;;11.32;;
29210;SDS011;16250;49.932;10.980;2022-08-25T08:15:42;13.48;;;11.60;;
29210;SDS011;16250;49.932;10.980;2022-08-25T08:18:09;12.68;;;11.25;;
29210;SDS011;16250;49.932;10.980;2022-08-25T08:20:35;13.95;;;12.15;;
29210;SDS011;16250;49.932;10.980;2022-08-25T08:23:01;13.75;;;11.90;;
29210;SDS011;16250;49.932;10.980;2022-08-25T08:25:27;13.90;;;11.55;;
29210;SDS011;16250;49.932;10.980;2022-08-25T08:27:53;13.73;;;11.25;;
29210;SDS011;16250;49.932;10.980;2022-08-25T08:30:20;14.32;;;11.25;;
29210;SDS011;16250;49.932;10.980;2022-08-25T08:32:46;14.30;;;12.02;;
29210;SDS011;16250;49.932;10.980;2022-08-25T08:35:13;14.82;;;11.35;;
29210;SDS011;16250;49.932;10.980;2022-08-25T08:37:42;13.40;;;11.25;;
29210;SDS011;16250;49.932;10.980;2022-08-25T08:40:09;12.93;;;11.18;;
29210;SDS011;16250;49.932;10.980;2022-08-25T08:42:41;12.32;;;10.77;;
29210;SDS011;16250;49.932;10.980;2022-08-25T08:51:17;11.23;;;10.13;;
29210;SDS011;16250;49.932;10.980;2022-08-25T08:54:03;13.00;;;9.63;;
29210;SDS011;16250;49.932;10.980;2022-08-25T08:56:37;12.43;;;9.45;;
29210;SDS011;16250;49.932;10.980;2022-08-25T08:59:16;12.20;;;10.38;;
29210;SDS011;16250;49.932;10.980;2022-08-25T09:01:49;12.68;;;9.43;;
29210;SDS011;16250;49.932;10.980;2022-08-25T09:04:22;11.75;;;9.80;;
29210;SDS011;16250;49.932;10.980;2022-08-25T09:06:53;12.60;;;9.63;;
29210;SDS011;16250;49.932;10.980;2022-08-25T09:09:28;12.27;;;9.52;;
29210;SDS011;16250;49.932;10.980;2022-08-25T09:14:59;11.15;;;8.38;;
29210;SDS011;16250;49.932;10.980;2022-08-25T09:17:55;13.43;;;8.45;;
29210;SDS011;16250;49.932;10.980;2022-08-25T09:28:47;9.38;;;8.13;;
29210;SDS011;16250;49.932;10.980;2022-08-25T09:31:16;8.85;;;7.93;;
29210;SDS011;16250;49.932;10.980;2022-08-25T09:33:42;9.93;;;7.85;;
29210;SDS011;16250;49.932;10.980;2022-08-25T09:36:08;8.85;;;7.95;;
29210;SDS011;16250;49.932;10.980;2022-08-25T09:38:34;11.35;;;8.43;;
29210;SDS011;16250;49.932;10.980;2022-08-25T09:41:00;8.55;;;7.63;;
29210;SDS011;16250;49.932;10.980;2022-08-25T09:48:34;8.50;;;7.60;;
29210;SDS011;16250;49.932;10.980;2022-08-25T09:51:14;8.77;;;7.60;;
29210;SDS011;16250;49.932;10.980;2022-08-25T09:53:47;8.65;;;7.82;;
29210;SDS011;16250;49.932;10.980;2022-08-25T09:56:21;9.20;;;7.53;;
29210;SDS011;16250;49.932;10.980;2022-08-25T09:58:51;9.73;;;7.20;;
29210;SDS011;16250;49.932;10.980;2022-08-25T10:01:20;8.50;;;7.55;;
29210;SDS011;16250;49.932;10.980;2022-08-25T10:03:57;13.95;;;7.72;;
29210;SDS011;16250;49.932;10.980;2022-08-25T10:06:25;9.65;;;6.63;;
29210;SDS011;16250;49.932;10.980;2022-08-25T10:08:55;8.73;;;6.72;;
29210;SDS011;16250;49.932;10.980;2022-08-25T10:11:37;7.65;;;6.80;;
29210;SDS011;16250;49.932;10.980;2022-08-25T10:14:16;10.70;;;7.15;;
29210;SDS011;16250;49.932;10.980;2022-08-25T10:16:52;8.68;;;7.00;;
29210;SDS011;16250;49.932;10.980;2022-08-25T10:22:36;10.18;;;7.30;;
29210;SDS011;16250;49.932;10.980;2022-08-25T10:25:04;8.93;;;7.22;;
29210;SDS011;16250;49.932;10.980;2022-08-25T10:33:15;8.98;;;7.10;;
29210;SDS011;16250;49.932;10.980;2022-08-25T10:38:41;8.30;;;6.80;;
29210;SDS011;16250;49.932;10.980;2022-08-25T10:44:01;8.55;;;7.50;;
29210;SDS011;16250;49.932;10.980;2022-08-25T10:47:13;8.02;;;7.22;;
29210;SDS011;16250;49.932;10.980;2022-08-25T10:50:04;7.82;;;7.07;;
29210;SDS011;16250;49.932;10.980;2022-08-25T10:52:48;7.38;;;6.63;;
29210;SDS011;16250;49.932;10.980;2022-08-25T10:55:34;10.18;;;7.18;;
29210;SDS011;16250;49.932;10.980;2022-08-25T10:58:23;8.00;;;7.15;;
29210;SDS011;16250;49.932;10.980;2022-08-25T11:01:03;7.60;;;6.90;;
29210;SDS011;16250;49.932;10.980;2022-08-25T11:06:21;8.88;;;7.40;;
29210;SDS011;16250;49.932;10.980;2022-08-25T11:08:54;9.05;;;6.88;;
29210;SDS011;16250;49.932;10.980;2022-08-25T11:11:36;9.65;;;7.95;;
29210;SDS011;16250;49.932;10.980;2022-08-25T11:14:20;8.43;;;7.50;;
29210;SDS011;16250;49.932;10.980;2022-08-25T11:19:38;10.23;;;7.25;;
29210;SDS011;16250;49.932;10.980;2022-08-25T11:30:30;11.32;;;7.72;;
29210;SDS011;16250;49.932;10.980;2022-08-25T11:32:56;9.07;;;7.00;;
29210;SDS011;16250;49.932;10.980;2022-08-25T11:35:26;10.98;;;7.32;;
29210;SDS011;16250;49.932;10.980;2022-08-25T11:53:35;8.85;;;7.80;;
29210;SDS011;16250;49.932;10.980;2022-08-25T11:56:06;9.85;;;7.75;;
29210;SDS011;16250;49.932;10.980;2022-08-25T11:58:38;10.98;;;7.45;;
29210;SDS011;16250;49.932;10.980;2022-08-25T12:01:05;8.80;;;7.75;;
29210;SDS011;16250;49.932;10.980;2022-08-25T12:08:51;10.48;;;7.80;;
29210;SDS011;16250;49.932;10.980;2022-08-25T12:16:41;11.45;;;7.82;;
29210;SDS011;16250;49.932;10.980;2022-08-25T12:27:01;10.02;;;7.60;;
29210;SDS011;16250;49.932;10.980;2022-08-25T12:29:31;9.25;;;7.07;;
29210;SDS011;16250;49.932;10.980;2022-08-25T12:32:30;10.23;;;7.32;;
29210;SDS011;16250;49.932;10.980;2022-08-25T12:43:49;9.25;;;7.75;;
29210;SDS011;16250;49.932;10.980;2022-08-25T12:51:26;8.45;;;7.53;;
29210;SDS011;16250;49.932;10.980;2022-08-25T12:56:40;9.35;;;8.00;;
29210;SDS011;16250;49.932;10.980;2022-08-25T13:01:49;12.63;;;8.10;;
29210;SDS011;16250;49.932;10.980;2022-08-25T13:10:45;9.65;;;8.10;;
29210;SDS011;16250;49.932;10.980;2022-08-25T13:16:14;10.38;;;8.32;;
29210;SDS011;16250;49.932;10.980;2022-08-25T13:18:46;11.90;;;8.20;;
29210;SDS011;16250;49.932;10.980;2022-08-25T13:23:54;9.20;;;8.25;;
29210;SDS011;16250;49.932;10.980;2022-08-25T13:26:26;9.38;;;8.43;;
29210;SDS011;16250;49.932;10.980;2022-08-25T13:29:02;12.90;;;8.83;;
29210;SDS011;16250;49.932;10.980;2022-08-25T13:31:36;8.57;;;7.75;;
29210;SDS011;16250;49.932;10.980;2022-08-25T13:34:16;12.13;;;8.45;;
29210;SDS011;16250;49.932;10.980;2022-08-25T13:36:44;11.02;;;8.27;;
29210;SDS011;16250;49.932;10.980;2022-08-25T13:39:30;9.07;;;7.82;;
29210;SDS011;16250;49.932;10.980;2022-08-25T13:42:00;9.23;;;7.78;;
29210;SDS011;16250;49.932;10.980;2022-08-25T13:44:29;9.60;;;7.57;;
29210;SDS011;16250;49.932;10.980;2022-08-25T13:47:14;13.15;;;8.35;;
29210;SDS011;16250;49.932;10.980;2022-08-25T13:50:06;10.45;;;7.90;;
29210;SDS011;16250;49.932;10.980;2022-08-25T13:52:39;10.63;;;9.23;;
29210;SDS011;16250;49.932;10.980;2022-08-25T13:55:05;9.40;;;8.20;;
29210;SDS011;16250;49.932;10.980;2022-08-25T13:57:31;9.77;;;8.07;;
29210;SDS011;16250;49.932;10.980;2022-08-25T14:00:02;9.48;;;7.97;;
29210;SDS011;16250;49.932;10.980;2022-08-25T14:05:13;10.15;;;8.55;;
29210;SDS011;16250;49.932;10.980;2022-08-25T14:07:51;11.23;;;8.73;;
29210;SDS011;16250;49.932;10.980;2022-08-25T14:13:06;10.02;;;8.77;;
29210;SDS011;16250;49.932;10.980;2022-08-25T14:15:38;10.60;;;9.20;;
29210;SDS011;16250;49.932;10.980;2022-08-25T14:18:10;10.75;;;8.35;;
29210;SDS011;16250;49.932;10.980;2022-08-25T14:20:43;9.57;;;8.05;;
29210;SDS011;16250;49.932;10.980;2022-08-25T14:23:14;11.25;;;8.77;;
29210;SDS011;16250;49.932;10.980;2022-08-25T14:25:45;11.50;;;8.32;;
29210;SDS011;16250;49.932;10.980;2022-08-25T14:28:17;11.60;;;7.85;;
29210;SDS011;16250;49.932;10.980;2022-08-25T14:30:48;9.52;;;8.48;;
29210;SDS011;16250;49.932;10.980;2022-08-25T14:33:26;12.73;;;8.25;;
29210;SDS011;16250;49.932;10.980;2022-08-25T14:35:56;8.85;;;7.90;;
29210;SDS011;16250;49.932;10.980;2022-08-25T14:38:23;8.82;;;7.93;;
29210;SDS011;16250;49.932;10.980;2022-08-25T14:40:50;9.27;;;8.15;;
29210;SDS011;16250;49.932;10.980;2022-08-25T14:43:16;8.88;;;7.97;;
29210;SDS011;16250;49.932;10.980;2022-08-25T14:45:43;9.38;;;7.70;;
29210;SDS011;16250;49.932;10.980;2022-08-25T14:48:16;11.18;;;8.73;;
29210;SDS011;16250;49.932;10.980;2022-08-25T14:50:48;9.35;;;8.00;;
29210;SDS011;16250;49.932;10.980;2022-08-25T14:53:14;9.68;;;8.68;;
29210;SDS011;16250;49.932;10.980;2022-08-25T14:55:40;8.65;;;7.85;;
29210;SDS011;16250;49.932;10.980;2022-08-25T14:58:06;11.82;;;8.40;;
29210;SDS011;16250;49.932;10.980;2022-08-25T15:00:33;11.18;;;8.45;;
29210;SDS011;16250;49.932;10.980;2022-08-25T15:03:04;9.80;;;8.52;;
29210;SDS011;16250;49.932;10.980;2022-08-25T15:05:31;9.65;;;8.00;;
29210;SDS011;16250;49.932;10.980;2022-08-25T15:07:57;9.68;;;8.27;;
29210;SDS011;16250;49.932;10.980;2022-08-25T15:10:41;9.32;;;8.00;;
29210;SDS011;16250;49.932;10.980;2022-08-25T15:13:06;8.98;;;8.07;;
29210;SDS011;16250;49.932;10.980;2022-08-25T15:15:33;9.18;;;7.85;;
29210;SDS011;16250;49.932;10.980;2022-08-25T15:18:03;10.10;;;8.57;;
29210;SDS011;16250;49.932;10.980;2022-08-25T15:20:29;9.20;;;8.40;;
29210;SDS011;16250;49.932;10.980;2022-08-25T15:22:55;16.30;;;8.95;;
29210;SDS011;16250;49.932;10.980;2022-08-25T15:25:20;9.63;;;8.60;;
29210;SDS011;16250;49.932;10.980;2022-08-25T15:27:46;9.63;;;8.45;;
29210;SDS011;16250;49.932;10.980;2022-08-25T15:30:13;9.65;;;8.32;;
29210;SDS011;16250;49.932;10.980;2022-08-25T15:32:38;10.65;;;8.30;;
29210;SDS011;16250;49.932;10.980;2022-08-25T15:35:05;10.50;;;8.20;;
29210;SDS011;16250;49.932;10.980;2022-08-25T15:37:31;9.60;;;8.30;;
29210;SDS011;16250;49.932;10.980;2022-08-25T15:39:56;11.50;;;8.82;;
29210;SDS011;16250;49.932;10.980;2022-08-25T15:42:22;9.98;;;8.23;;
29210;SDS011;16250;49.932;10.980;2022-08-25T15:44:49;9.77;;;8.23;;
29210;SDS011;16250;49.932;10.980;2022-08-25T15:47:14;12.10;;;8.65;;
29210;SDS011;16250;49.932;10.980;2022-08-25T15:49:40;9.10;;;8.30;;
29210;SDS011;16250;49.932;10.980;2022-08-25T15:52:07;9.32;;;8.23;;
29210;SDS011;16250;49.932;10.980;2022-08-25T15:54:33;9.20;;;8.30;;
29210;SDS011;16250;49.932;10.980;2022-08-25T15:56:59;9.02;;;8.13;;
29210;SDS011;16250;49.932;10.980;2022-08-25T15:59:26;9.82;;;8.60;;
29210;SDS011;16250;49.932;10.980;2022-08-25T16:01:52;11.40;;;8.43;;
29210;SDS011;16250;49.932;10.980;2022-08-25T16:04:19;10.60;;;8.75;;
29210;SDS011;16250;49.932;10.980;2022-08-25T16:06:45;11.23;;;8.35;;
29210;SDS011;16250;49.932;10.980;2022-08-25T16:09:11;10.88;;;8.57;;
29210;SDS011;16250;49.932;10.980;2022-08-25T16:11:37;11.68;;;8.73;;
29210;SDS011;16250;49.932;10.980;2022-08-25T16:14:03;9.32;;;8.02;;
29210;SDS011;16250;49.932;10.980;2022-08-25T16:16:30;10.25;;;8.85;;
29210;SDS011;16250;49.932;10.980;2022-08-25T16:18:56;12.68;;;9.50;;
29210;SDS011;16250;49.932;10.980;2022-08-25T16:21:28;10.32;;;8.65;;
29210;SDS011;16250;49.932;10.980;2022-08-25T16:23:58;12.75;;;8.77;;
29210;SDS011;16250;49.932;10.980;2022-08-25T16:26:25;10.80;;;8.63;;
29210;SDS011;16250;49.932;10.980;2022-08-25T16:28:51;10.18;;;8.10;;
29210;SDS011;16250;49.932;10.980;2022-08-25T16:31:17;10.32;;;8.35;;
29210;SDS011;16250;49.932;10.980;2022-08-25T16:33:43;10.68;;;8.73;;